Time;durP1;ratioP1;P1;durP2;ratioP2;P2;SDS_P1;SDS_P2;PMS_P1;PMS_P2;Temp;Humidity;BMP_temperature;BMP_pressure;BME280_temperature;BME280_humidity;BME280_pressure;Samples;Min_cycle;Max_cycle;Signal;HPM_P1;HPM_P2
2023/09/30 00:00:00;;;;;;;;;;;17.00;93.00;;;;;;4974857;28;20477;-64
2023/09/30 00:02:26;;;;;;;;;;;17.00;93.00;;;;;;4974484;28;20050;-63
2023/09/30 00:04:52;;;;;;;;;;;17.00;92.90;;;;;;4974719;28;20098;-64
2023/09/30 00:07:17;;;;;;;;;;;17.00;92.80;;;;;;4974745;28;20045;-63
2023/09/30 00:09:43;;;;;;;;;;;16.90;92.90;;;;;;4974626;28;19983;-63
2023/09/30 00:12:08;;;;;;;;;;;16.90;93.40;;;;;;4974680;28;20323;-63
2023/09/30 00:14:34;;;;;;;;;;;16.80;93.90;;;;;;4975026;28;19990;-63
2023/09/30 00:17:00;;;;;;;;;;;16.80;93.80;;;;;;4978571;28;19983;-63
2023/09/30 00:19:26;;;;;;;;;;;16.80;93.60;;;;;;4978544;28;20417;-63
2023/09/30 00:21:51;;;;;;;;;;;16.70;94.00;;;;;;4978609;28;20080;-63
2023/09/30 00:24:17;;;;;;;;;;;16.70;94.10;;;;;;4978498;28;20098;-63
2023/09/30 00:26:42;;;;;;;;;;;16.70;94.10;;;;;;4978349;28;19983;-63
2023/09/30 00:29:08;;;;;;;;;;;16.70;94.00;;;;;;4978588;28;19987;-63
2023/09/30 00:31:33;;;;;;;;;;;16.60;93.90;;;;;;4978353;28;19983;-64
2023/09/30 00:33:59;;;;;;;;;;;16.60;93.40;;;;;;4978319;28;20465;-64
2023/09/30 00:36:25;;;;;;;;;;;16.60;93.70;;;;;;4978366;28;19987;-64
2023/09/30 00:38:52;;;;;;;;;;;16.60;93.60;;;;;;4978388;28;20070;-64
2023/09/30 00:41:17;;;;;;;;;;;16.60;93.40;;;;;;4978202;28;19983;-64
2023/09/30 00:43:45;;;;;;;;;;;16.60;93.20;;;;;;4978229;28;20007;-64
2023/09/30 00:46:14;;;;;;;;;;;16.50;93.40;;;;;;4978146;28;19990;-63
2023/09/30 00:48:39;;;;;;;;;;;16.50;93.60;;;;;;4960694;28;20413;-64
2023/09/30 00:51:06;;;;;;;;;;;16.40;94.10;;;;;;4978049;28;19991;-64
2023/09/30 00:53:32;;;;;;;;;;;16.40;94.00;;;;;;4978143;28;19984;-64
2023/09/30 00:55:58;;;;;;;;;;;16.40;94.50;;;;;;4978015;28;20350;-64
2023/09/30 00:58:27;;;;;;;;;;;16.40;94.40;;;;;;4977882;28;20007;-64
2023/09/30 01:00:53;;;;;;;;;;;16.30;94.60;;;;;;4977850;28;19983;-63
2023/09/30 01:03:19;;;;;;;;;;;16.30;95.00;;;;;;4977636;28;20026;-64
2023/09/30 01:05:45;;;;;;;;;;;16.30;94.90;;;;;;4978376;28;20030;-64
2023/09/30 01:08:10;;;;;;;;;;;16.30;95.00;;;;;;4977823;28;19984;-64
2023/09/30 01:10:36;;;;;;;;;;;16.30;95.10;;;;;;4977752;28;19983;-64
2023/09/30 01:13:01;;;;;;;;;;;16.20;94.10;;;;;;4977623;28;19983;-64
2023/09/30 01:15:28;;;;;;;;;;;16.20;93.80;;;;;;4977445;28;20430;-63
2023/09/30 01:17:54;;;;;;;;;;;16.20;93.60;;;;;;4977609;28;20022;-64
2023/09/30 01:20:22;;;;;;;;;;;16.20;93.80;;;;;;4977453;28;20440;-64
2023/09/30 01:22:47;;;;;;;;;;;16.10;94.10;;;;;;4977544;28;20005;-64
2023/09/30 01:25:13;;;;;;;;;;;16.10;93.70;;;;;;4977372;28;20445;-64
2023/09/30 01:27:38;;;;;;;;;;;16.10;94.00;;;;;;4976399;28;20445;-64
2023/09/30 01:30:04;;;;;;;;;;;16.00;93.90;;;;;;4977245;28;19982;-64
2023/09/30 01:32:30;;;;;;;;;;;16.00;94.70;;;;;;4977735;28;20019;-64
2023/09/30 01:34:55;;;;;;;;;;;16.00;94.20;;;;;;4977276;28;20437;-64
2023/09/30 01:37:21;;;;;;;;;;;15.90;94.60;;;;;;4959891;28;20512;-64
2023/09/30 01:39:48;;;;;;;;;;;16.00;94.80;;;;;;4977202;28;20042;-64
2023/09/30 01:42:14;;;;;;;;;;;15.90;95.70;;;;;;4977229;28;19991;-63
2023/09/30 01:44:40;;;;;;;;;;;15.90;95.70;;;;;;4976829;28;20003;-64
2023/09/30 01:47:05;;;;;;;;;;;15.90;95.80;;;;;;4977042;28;20041;-63
2023/09/30 01:49:31;;;;;;;;;;;15.80;95.40;;;;;;4977073;28;20022;-64
2023/09/30 01:51:56;;;;;;;;;;;15.90;95.60;;;;;;4976937;28;19990;-63
2023/09/30 01:54:22;;;;;;;;;;;15.80;95.30;;;;;;4977052;28;19990;-63
2023/09/30 01:56:49;;;;;;;;;;;15.80;95.40;;;;;;4959600;28;19987;-63
2023/09/30 01:59:15;;;;;;;;;;;15.80;95.40;;;;;;4976540;28;20010;-63
2023/09/30 02:01:40;;;;;;;;;;;15.70;96.00;;;;;;4976789;28;20434;-63
2023/09/30 02:04:06;;;;;;;;;;;15.70;96.10;;;;;;4976582;28;20019;-64
2023/09/30 02:06:32;;;;;;;;;;;15.70;96.20;;;;;;4976678;28;20046;-63
2023/09/30 02:08:57;;;;;;;;;;;15.70;96.40;;;;;;4976790;28;20042;-64
2023/09/30 02:11:23;;;;;;;;;;;15.60;96.70;;;;;;4976648;28;20381;-63
2023/09/30 02:13:48;;;;;;;;;;;15.60;96.80;;;;;;4976434;28;20006;-63
2023/09/30 02:16:14;;;;;;;;;;;15.60;97.10;;;;;;4976444;28;20074;-64
2023/09/30 02:18:42;;;;;;;;;;;15.60;96.70;;;;;;4976571;28;19997;-63
2023/09/30 02:21:08;;;;;;;;;;;15.60;96.70;;;;;;4976493;28;19990;-64
2023/09/30 02:23:35;;;;;;;;;;;15.60;96.80;;;;;;4976306;28;20007;-63
2023/09/30 02:26:01;;;;;;;;;;;15.60;96.90;;;;;;4976138;28;19990;-63
2023/09/30 02:28:27;;;;;;;;;;;15.60;96.40;;;;;;4976311;28;20453;-63
2023/09/30 02:30:53;;;;;;;;;;;15.60;95.70;;;;;;4976183;28;19983;-64
2023/09/30 02:33:19;;;;;;;;;;;15.50;95.40;;;;;;4976295;28;20440;-64
2023/09/30 02:35:45;;;;;;;;;;;15.50;95.70;;;;;;4976284;28;20011;-63
2023/09/30 02:38:11;;;;;;;;;;;15.40;95.60;;;;;;4975964;28;20094;-63
2023/09/30 02:40:38;;;;;;;;;;;15.40;95.70;;;;;;4976148;28;19987;-63
2023/09/30 02:43:04;;;;;;;;;;;15.40;95.40;;;;;;4976043;28;20442;-64
2023/09/30 02:45:29;;;;;;;;;;;15.30;95.40;;;;;;4975904;28;20096;-64
2023/09/30 02:47:55;;;;;;;;;;;15.20;95.10;;;;;;4958882;28;20361;-64
2023/09/30 02:50:21;;;;;;;;;;;15.20;95.50;;;;;;4975928;28;20038;-63
2023/09/30 02:52:46;;;;;;;;;;;15.20;95.50;;;;;;4975858;28;19989;-64
2023/09/30 02:55:12;;;;;;;;;;;15.20;95.40;;;;;;4976102;28;20086;-63
2023/09/30 02:57:38;;;;;;;;;;;15.20;95.30;;;;;;4958171;28;20003;-63
2023/09/30 03:00:23;;;;;;;;;;;15.20;95.80;;;;;;4975782;28;19984;-63
2023/09/30 03:02:50;;;;;;;;;;;15.10;95.70;;;;;;4975575;28;20014;-63
2023/09/30 03:05:16;;;;;;;;;;;15.10;96.00;;;;;;4975649;28;20006;-63
2023/09/30 03:07:41;;;;;;;;;;;15.00;96.20;;;;;;4975494;28;20451;-64
2023/09/30 03:10:08;;;;;;;;;;;15.00;96.20;;;;;;4975447;28;19984;-64
2023/09/30 03:12:34;;;;;;;;;;;15.00;96.30;;;;;;4975617;28;19984;-63
2023/09/30 03:15:04;;;;;;;;;;;15.00;96.70;;;;;;4975397;28;20006;-63
2023/09/30 03:17:30;;;;;;;;;;;15.00;96.90;;;;;;4975610;28;19983;-64
2023/09/30 03:19:57;;;;;;;;;;;15.00;96.80;;;;;;4975372;28;19983;-63
2023/09/30 03:22:22;;;;;;;;;;;15.00;97.50;;;;;;4975310;28;20030;-63
2023/09/30 03:24:48;;;;;;;;;;;14.90;98.00;;;;;;4957864;28;20062;-63
2023/09/30 03:27:15;;;;;;;;;;;14.90;98.30;;;;;;4975279;28;19983;-63
2023/09/30 03:29:41;;;;;;;;;;;14.80;98.90;;;;;;4975182;28;20493;-64
2023/09/30 03:32:06;;;;;;;;;;;14.70;99.10;;;;;;4975206;28;19983;-63
2023/09/30 03:34:36;;;;;;;;;;;14.70;99.20;;;;;;4975199;28;20022;-63
2023/09/30 03:37:02;;;;;;;;;;;14.70;99.20;;;;;;4975034;28;20459;-63
2023/09/30 03:39:27;;;;;;;;;;;14.80;99.10;;;;;;4975008;28;20081;-63
2023/09/30 03:41:56;;;;;;;;;;;14.80;99.00;;;;;;4975335;28;20050;-63
2023/09/30 03:44:23;;;;;;;;;;;14.80;99.00;;;;;;4974894;28;20010;-63
2023/09/30 03:46:49;;;;;;;;;;;14.80;99.20;;;;;;4975096;28;19995;-63
2023/09/30 03:49:16;;;;;;;;;;;14.80;98.90;;;;;;4957231;28;19991;-63
2023/09/30 03:51:42;;;;;;;;;;;14.80;99.00;;;;;;4974969;28;19984;-64
2023/09/30 03:54:08;;;;;;;;;;;14.80;99.00;;;;;;4974679;28;19983;-63
2023/09/30 03:56:34;;;;;;;;;;;14.70;99.00;;;;;;4974944;28;20046;-64
2023/09/30 03:58:59;;;;;;;;;;;14.70;98.90;;;;;;4974853;28;19998;-63
2023/09/30 04:01:26;;;;;;;;;;;14.70;99.20;;;;;;4957285;28;20077;-63
2023/09/30 04:03:55;;;;;;;;;;;14.70;98.60;;;;;;4974653;28;20030;-63
2023/09/30 04:06:21;;;;;;;;;;;14.70;99.10;;;;;;4974665;28;19984;-63
2023/09/30 04:08:46;;;;;;;;;;;14.60;99.00;;;;;;4974524;28;20078;-63
2023/09/30 04:11:17;;;;;;;;;;;14.60;99.00;;;;;;4974697;28;20018;-63
2023/09/30 04:13:44;;;;;;;;;;;14.60;98.60;;;;;;4974834;28;19983;-63
2023/09/30 04:16:09;;;;;;;;;;;14.60;98.80;;;;;;4957358;28;19988;-63
2023/09/30 04:18:35;;;;;;;;;;;14.50;99.10;;;;;;4974757;28;20449;-63
2023/09/30 04:21:04;;;;;;;;;;;14.50;99.00;;;;;;4974742;28;20038;-63
2023/09/30 04:23:30;;;;;;;;;;;14.50;98.70;;;;;;4974329;28;19987;-63
2023/09/30 04:25:55;;;;;;;;;;;14.50;98.40;;;;;;4974918;28;19987;-63
2023/09/30 04:28:21;;;;;;;;;;;14.50;98.20;;;;;;4974641;28;20484;-63
2023/09/30 04:30:48;;;;;;;;;;;14.40;98.50;;;;;;4974563;28;20357;-64
2023/09/30 04:33:14;;;;;;;;;;;14.40;98.80;;;;;;4974593;28;19983;-64
2023/09/30 04:35:39;;;;;;;;;;;14.40;98.90;;;;;;4974586;28;20476;-63
2023/09/30 04:38:05;;;;;;;;;;;14.40;98.80;;;;;;4974339;28;19987;-63
2023/09/30 04:40:30;;;;;;;;;;;14.40;99.10;;;;;;4974527;28;20460;-63
2023/09/30 04:42:59;;;;;;;;;;;14.40;99.60;;;;;;4974476;28;20082;-63
2023/09/30 04:45:26;;;;;;;;;;;14.40;99.70;;;;;;4974375;28;20007;-63
2023/09/30 04:47:57;;;;;;;;;;;14.40;99.60;;;;;;4974426;28;19983;-64
2023/09/30 04:50:23;;;;;;;;;;;14.40;99.80;;;;;;4974408;28;20034;-63
2023/09/30 04:52:51;;;;;;;;;;;14.40;99.90;;;;;;4974166;28;20020;-63
2023/09/30 04:55:16;;;;;;;;;;;14.40;99.60;;;;;;4974505;28;19989;-65
2023/09/30 04:57:47;;;;;;;;;;;14.40;99.60;;;;;;4974376;28;20432;-63
2023/09/30 05:00:21;;;;;;;;;;;14.40;99.90;;;;;;4974178;28;19983;-63
2023/09/30 05:02:47;;;;;;;;;;;14.40;99.70;;;;;;4976297;28;20022;-63
2023/09/30 05:05:14;;;;;;;;;;;14.40;99.60;;;;;;4977793;28;20007;-63
2023/09/30 05:07:41;;;;;;;;;;;14.40;99.20;;;;;;4977489;28;20066;-63
2023/09/30 05:10:10;;;;;;;;;;;14.40;99.30;;;;;;4977959;28;20074;-63
2023/09/30 05:12:36;;;;;;;;;;;14.40;98.60;;;;;;4977795;28;20037;-63
2023/09/30 05:15:01;;;;;;;;;;;14.40;98.60;;;;;;4977612;28;19987;-64
2023/09/30 05:17:28;;;;;;;;;;;14.40;99.00;;;;;;4977617;28;20069;-63
2023/09/30 05:19:54;;;;;;;;;;;14.40;99.50;;;;;;4977499;28;19983;-63
2023/09/30 05:22:23;;;;;;;;;;;14.30;99.80;;;;;;4977358;28;20400;-63
2023/09/30 05:24:50;;;;;;;;;;;14.40;99.90;;;;;;4977489;28;20014;-63
2023/09/30 05:27:16;;;;;;;;;;;14.40;99.90;;;;;;4977542;28;19983;-64
2023/09/30 05:29:42;;;;;;;;;;;14.50;99.90;;;;;;4977373;28;20452;-63
2023/09/30 05:32:08;;;;;;;;;;;14.50;99.90;;;;;;4977477;28;19984;-63
2023/09/30 05:34:34;;;;;;;;;;;14.50;99.80;;;;;;4977359;28;19983;-63
2023/09/30 05:36:59;;;;;;;;;;;14.60;99.60;;;;;;4977146;28;20073;-63
2023/09/30 05:39:25;;;;;;;;;;;14.60;99.20;;;;;;4977339;28;19983;-64
2023/09/30 05:41:51;;;;;;;;;;;14.70;98.90;;;;;;4959915;28;20413;-63
2023/09/30 05:44:16;;;;;;;;;;;14.80;99.30;;;;;;4977111;28;20046;-64
2023/09/30 05:46:45;;;;;;;;;;;14.80;98.50;;;;;;4977008;28;20481;-63
2023/09/30 05:49:13;;;;;;;;;;;14.80;98.60;;;;;;4977125;28;20050;-63
2023/09/30 05:51:42;;;;;;;;;;;14.80;98.80;;;;;;4959559;28;19991;-64
2023/09/30 05:54:11;;;;;;;;;;;14.80;99.30;;;;;;4976797;28;19983;-63
2023/09/30 05:56:37;;;;;;;;;;;14.80;99.40;;;;;;4976952;28;19987;-64
2023/09/30 05:59:07;;;;;;;;;;;14.90;99.40;;;;;;4976899;28;19999;-64
2023/09/30 06:01:33;;;;;;;;;;;14.90;99.80;;;;;;4976858;28;20053;-63
2023/09/30 06:03:59;;;;;;;;;;;15.00;99.50;;;;;;4976610;28;20548;-63
2023/09/30 06:06:26;;;;;;;;;;;15.00;99.80;;;;;;4959334;28;20377;-63
2023/09/30 06:08:51;;;;;;;;;;;15.10;99.90;;;;;;4976632;28;20462;-64
2023/09/30 06:11:17;;;;;;;;;;;15.20;99.80;;;;;;4976777;28;19983;-63
2023/09/30 06:13:43;;;;;;;;;;;15.30;99.80;;;;;;4976220;28;20006;-64
2023/09/30 06:16:11;;;;;;;;;;;16.40;98.90;;;;;;4976505;28;19983;-63
2023/09/30 06:18:36;;;;;;;;;;;19.20;92.20;;;;;;4976554;28;20019;-66
2023/09/30 06:21:03;;;;;;;;;;;21.70;73.10;;;;;;4976586;28;19983;-64
2023/09/30 06:23:29;;;;;;;;;;;23.70;61.80;;;;;;4976369;28;19990;-64
2023/09/30 06:25:55;;;;;;;;;;;25.30;54.00;;;;;;4976534;28;20046;-64
2023/09/30 06:28:25;;;;;;;;;;;26.50;48.70;;;;;;4976386;28;19982;-64
2023/09/30 06:30:52;;;;;;;;;;;27.30;46.00;;;;;;4976249;28;20005;-64
2023/09/30 06:33:17;;;;;;;;;;;28.20;43.80;;;;;;4976256;28;19990;-64
2023/09/30 06:35:50;;;;;;;;;;;29.00;41.80;;;;;;4976065;28;20078;-64
2023/09/30 06:38:19;;;;;;;;;;;29.50;40.40;;;;;;4976110;28;20395;-64
2023/09/30 06:40:46;;;;;;;;;;;30.00;39.20;;;;;;4976182;28;20335;-64
2023/09/30 06:43:12;;;;;;;;;;;30.30;38.10;;;;;;4976111;28;20020;-64
2023/09/30 06:45:41;;;;;;;;;;;30.30;37.90;;;;;;4975901;28;20065;-64
2023/09/30 06:48:07;;;;;;;;;;;30.60;38.10;;;;;;4975863;28;20432;-64
2023/09/30 06:50:33;;;;;;;;;;;31.10;37.10;;;;;;4975964;28;20326;-64
2023/09/30 06:52:59;;;;;;;;;;;31.60;36.70;;;;;;4975790;28;19990;-64
2023/09/30 06:55:27;;;;;;;;;;;31.90;36.00;;;;;;4975871;28;20085;-64
2023/09/30 06:57:52;;;;;;;;;;;32.50;35.80;;;;;;4975731;28;19999;-64
2023/09/30 07:00:18;;;;;;;;;;;32.80;34.30;;;;;;4975999;28;20429;-64
2023/09/30 07:02:44;;;;;;;;;;;33.10;33.80;;;;;;4975367;28;20493;-64
2023/09/30 07:05:11;;;;;;;;;;;33.50;33.90;;;;;;4975666;28;20008;-63
2023/09/30 07:07:36;;;;;;;;;;;34.10;33.20;;;;;;4975472;28;19990;-64
2023/09/30 07:10:04;;;;;;;;;;;34.50;33.30;;;;;;4958233;28;20456;-64
2023/09/30 07:12:31;;;;;;;;;;;34.80;31.80;;;;;;4975534;28;20006;-64
2023/09/30 07:14:57;;;;;;;;;;;35.10;31.60;;;;;;4958422;28;19987;-64
2023/09/30 07:17:23;;;;;;;;;;;35.30;31.10;;;;;;4975425;28;20339;-64
2023/09/30 07:19:48;;;;;;;;;;;35.40;30.40;;;;;;4975528;28;20039;-64
2023/09/30 07:22:14;;;;;;;;;;;35.60;30.40;;;;;;4975351;28;19983;-64
2023/09/30 07:24:39;;;;;;;;;;;35.50;30.00;;;;;;4974531;28;20113;-64
2023/09/30 07:27:06;;;;;;;;;;;35.50;30.80;;;;;;4975365;28;19983;-64
2023/09/30 07:29:33;;;;;;;;;;;35.70;30.10;;;;;;4957972;28;20034;-65
2023/09/30 07:31:58;;;;;;;;;;;36.00;30.00;;;;;;4975008;28;20361;-64
2023/09/30 07:34:24;;;;;;;;;;;36.30;29.80;;;;;;4975574;28;19983;-64
2023/09/30 07:36:49;;;;;;;;;;;36.50;29.90;;;;;;4975167;28;20457;-64
2023/09/30 07:39:15;;;;;;;;;;;36.60;29.50;;;;;;4975082;28;20574;-64
2023/09/30 07:41:40;;;;;;;;;;;36.80;29.00;;;;;;4975179;28;20457;-64
2023/09/30 07:44:06;;;;;;;;;;;36.90;29.00;;;;;;4974950;28;20007;-64
2023/09/30 07:46:32;;;;;;;;;;;36.90;28.80;;;;;;4974813;28;19983;-64
2023/09/30 07:48:59;;;;;;;;;;;37.00;30.00;;;;;;4974913;28;19983;-63
2023/09/30 07:51:24;;;;;;;;;;;37.20;29.00;;;;;;4975322;28;20522;-64
2023/09/30 07:53:50;;;;;;;;;;;37.50;29.50;;;;;;4974899;28;20035;-65
2023/09/30 07:56:16;;;;;;;;;;;37.40;28.90;;;;;;4974906;28;19987;-64
2023/09/30 07:58:41;;;;;;;;;;;37.30;29.20;;;;;;4974789;28;19999;-65
2023/09/30 08:01:10;;;;;;;;;;;37.40;28.50;;;;;;4974819;28;19983;-64
2023/09/30 08:03:36;;;;;;;;;;;37.00;28.20;;;;;;4974741;28;20138;-65
2023/09/30 08:06:02;;;;;;;;;;;37.10;28.30;;;;;;4957449;28;20081;-63
2023/09/30 08:08:29;;;;;;;;;;;37.30;27.80;;;;;;4974819;28;19983;-65
2023/09/30 08:10:56;;;;;;;;;;;36.90;28.40;;;;;;4974676;28;20033;-66
2023/09/30 08:13:22;;;;;;;;;;;36.80;27.80;;;;;;4974823;28;19987;-64
2023/09/30 08:15:49;;;;;;;;;;;36.50;28.20;;;;;;4974583;28;20334;-65
2023/09/30 08:18:14;;;;;;;;;;;36.30;28.40;;;;;;4974645;28;20030;-64
2023/09/30 08:20:40;;;;;;;;;;;36.50;29.00;;;;;;4974812;28;20019;-64
2023/09/30 08:23:06;;;;;;;;;;;36.60;28.50;;;;;;4974949;28;20437;-65
2023/09/30 08:25:31;;;;;;;;;;;35.90;29.60;;;;;;4974509;28;20105;-64
2023/09/30 08:27:57;;;;;;;;;;;36.00;29.10;;;;;;4974695;28;19987;-64
2023/09/30 08:30:23;;;;;;;;;;;36.20;29.40;;;;;;4974796;28;20413;-64
2023/09/30 08:32:48;;;;;;;;;;;35.90;29.60;;;;;;4974790;28;19983;-65
2023/09/30 08:35:15;;;;;;;;;;;35.90;29.20;;;;;;4974552;28;19984;-64
2023/09/30 08:37:40;;;;;;;;;;;35.00;29.80;;;;;;4978290;28;20382;-64
2023/09/30 08:40:06;;;;;;;;;;;34.40;31.30;;;;;;4960861;28;19994;-64
2023/09/30 08:42:34;;;;;;;;;;;33.90;30.30;;;;;;4978377;28;20361;-64
2023/09/30 08:44:59;;;;;;;;;;;33.50;32.70;;;;;;4977997;28;20003;-64
2023/09/30 08:47:28;;;;;;;;;;;33.70;31.50;;;;;;4978235;28;19998;-64
2023/09/30 08:49:57;;;;;;;;;;;33.50;32.50;;;;;;4978183;28;19994;-65
2023/09/30 08:52:23;;;;;;;;;;;33.30;31.70;;;;;;4978136;28;20424;-64
2023/09/30 08:54:49;;;;;;;;;;;32.90;32.00;;;;;;4977957;28;20034;-65
2023/09/30 08:57:15;;;;;;;;;;;32.60;31.90;;;;;;4978091;28;19993;-65
2023/09/30 08:59:41;;;;;;;;;;;32.40;32.40;;;;;;4960385;28;19996;-65
2023/09/30 09:02:09;;;;;;;;;;;32.50;32.30;;;;;;4977965;28;19990;-64
2023/09/30 09:04:36;;;;;;;;;;;32.20;32.60;;;;;;4977531;28;20070;-64
2023/09/30 09:07:02;;;;;;;;;;;32.00;33.20;;;;;;4977902;28;20050;-64
2023/09/30 09:09:28;;;;;;;;;;;32.00;32.80;;;;;;4977833;28;19983;-64
2023/09/30 09:11:53;;;;;;;;;;;32.00;34.30;;;;;;4977752;28;19990;-64
2023/09/30 09:14:19;;;;;;;;;;;31.80;33.60;;;;;;4977799;28;19983;-64
2023/09/30 09:16:55;;;;;;;;;;;32.10;32.20;;;;;;4977764;28;20010;-64
2023/09/30 09:19:21;;;;;;;;;;;31.80;32.30;;;;;;4977948;28;20445;-65
2023/09/30 09:21:57;;;;;;;;;;;32.00;33.10;;;;;;4977890;28;19983;-65
2023/09/30 09:24:42;;;;;;;;;;;32.30;34.70;;;;;;4977653;28;20014;-64
2023/09/30 09:27:09;;;;;;;;;;;32.00;32.00;;;;;;4977697;28;19990;-64
2023/09/30 09:29:36;;;;;;;;;;;31.80;32.40;;;;;;4977356;28;19987;-65
2023/09/30 09:32:08;;;;;;;;;;;31.80;32.30;;;;;;4977677;28;19987;-64
2023/09/30 09:34:33;;;;;;;;;;;31.90;31.30;;;;;;4977318;28;19983;-64
2023/09/30 09:36:59;;;;;;;;;;;32.00;32.70;;;;;;4977219;28;19993;-64
2023/09/30 09:39:31;;;;;;;;;;;32.30;30.40;;;;;;4977611;28;19994;-64
2023/09/30 09:41:57;;;;;;;;;;;32.20;30.10;;;;;;4977331;28;20078;-64
2023/09/30 09:44:25;;;;;;;;;;;32.20;30.60;;;;;;4977373;28;20007;-64
2023/09/30 09:46:50;;;;;;;;;;;32.30;32.60;;;;;;4977232;28;20497;-64
2023/09/30 09:49:16;;;;;;;;;;;32.50;31.10;;;;;;4976203;28;20034;-64
2023/09/30 09:51:44;;;;;;;;;;;32.40;32.20;;;;;;4977032;28;19983;-65
2023/09/30 09:54:10;;;;;;;;;;;32.60;29.80;;;;;;4959874;28;20426;-64
2023/09/30 09:56:36;;;;;;;;;;;32.60;30.10;;;;;;4976902;28;19990;-64
2023/09/30 09:59:04;;;;;;;;;;;33.00;29.40;;;;;;4976053;28;20429;-63
2023/09/30 10:01:30;;;;;;;;;;;33.00;28.80;;;;;;4977183;28;19987;-64
2023/09/30 10:03:56;;;;;;;;;;;33.00;29.10;;;;;;4976359;28;20033;-64
2023/09/30 10:06:22;;;;;;;;;;;33.10;29.90;;;;;;4976830;28;19984;-64
2023/09/30 10:08:50;;;;;;;;;;;33.40;28.80;;;;;;4976701;28;19983;-64
2023/09/30 10:11:17;;;;;;;;;;;33.40;30.90;;;;;;4976947;28;19987;-65
2023/09/30 10:14:03;;;;;;;;;;;33.50;30.20;;;;;;4976978;28;20430;-64
2023/09/30 10:16:35;;;;;;;;;;;33.50;30.10;;;;;;4959252;28;20031;-64
2023/09/30 10:19:07;;;;;;;;;;;33.60;30.50;;;;;;4959267;28;19994;-65
2023/09/30 10:21:33;;;;;;;;;;;33.80;30.00;;;;;;4976481;28;20419;-64
2023/09/30 10:24:17;;;;;;;;;;;34.10;31.00;;;;;;4976454;28;20007;-63
2023/09/30 10:26:43;;;;;;;;;;;34.10;31.00;;;;;;4976161;28;20505;-64
2023/09/30 10:29:09;;;;;;;;;;;33.80;31.40;;;;;;4976446;28;19983;-66
2023/09/30 10:31:49;;;;;;;;;;;34.00;31.10;;;;;;4976314;28;19990;-65
2023/09/30 10:34:21;;;;;;;;;;;34.30;30.60;;;;;;4959108;28;20041;-64
2023/09/30 10:36:47;;;;;;;;;;;34.40;30.30;;;;;;4976078;28;19990;-64
2023/09/30 10:39:14;;;;;;;;;;;34.60;31.60;;;;;;4976465;28;19983;-65
2023/09/30 10:41:45;;;;;;;;;;;34.70;31.00;;;;;;4975967;28;19987;-66
2023/09/30 10:44:30;;;;;;;;;;;34.70;29.50;;;;;;4976357;28;20042;-64
2023/09/30 10:46:57;;;;;;;;;;;34.70;29.90;;;;;;4976000;28;19987;-64
2023/09/30 10:49:22;;;;;;;;;;;34.30;29.90;;;;;;4975889;28;20045;-65
2023/09/30 10:51:56;;;;;;;;;;;33.90;29.70;;;;;;4958593;28;20350;-65
2023/09/30 10:54:23;;;;;;;;;;;34.20;29.40;;;;;;4975561;28;19983;-65
2023/09/30 10:56:49;;;;;;;;;;;34.10;28.60;;;;;;4975863;28;19984;-65
2023/09/30 10:59:24;;;;;;;;;;;34.30;30.60;;;;;;4975159;28;19999;-65
2023/09/30 11:01:51;;;;;;;;;;;34.30;30.80;;;;;;4975707;28;19983;-64
2023/09/30 11:04:18;;;;;;;;;;;34.00;30.60;;;;;;4975491;28;20042;-65
2023/09/30 11:06:43;;;;;;;;;;;33.70;30.00;;;;;;4975774;28;19994;-64
2023/09/30 11:09:12;;;;;;;;;;;33.50;30.20;;;;;;4975823;28;19983;-64
2023/09/30 11:11:43;;;;;;;;;;;33.20;32.30;;;;;;4975880;28;19983;-65
2023/09/30 11:14:19;;;;;;;;;;;32.70;33.10;;;;;;4975463;28;19991;-64
2023/09/30 11:16:44;;;;;;;;;;;32.80;31.40;;;;;;4975513;28;19989;-65
2023/09/30 11:19:11;;;;;;;;;;;32.90;34.50;;;;;;4975604;28;20085;-64
2023/09/30 11:21:37;;;;;;;;;;;33.20;32.10;;;;;;4975754;28;20042;-64
2023/09/30 11:24:03;;;;;;;;;;;33.40;32.20;;;;;;4975371;28;20007;-64
2023/09/30 11:26:31;;;;;;;;;;;33.60;35.20;;;;;;4975238;28;20505;-64
2023/09/30 11:29:04;;;;;;;;;;;33.80;30.50;;;;;;4957999;28;19987;-65
2023/09/30 11:31:33;;;;;;;;;;;33.90;32.10;;;;;;4975098;28;19983;-65
2023/09/30 11:34:03;;;;;;;;;;;33.70;33.60;;;;;;4975144;28;19983;-65
2023/09/30 11:36:30;;;;;;;;;;;33.80;33.00;;;;;;4975168;28;19983;-64
2023/09/30 11:38:56;;;;;;;;;;;33.80;34.50;;;;;;4974928;28;19987;-64
2023/09/30 11:41:22;;;;;;;;;;;34.00;35.40;;;;;;4975035;28;20514;-65
2023/09/30 11:44:04;;;;;;;;;;;34.00;33.20;;;;;;4975077;28;19983;-65
2023/09/30 11:46:33;;;;;;;;;;;34.20;31.10;;;;;;4974964;28;20365;-64
2023/09/30 11:49:03;;;;;;;;;;;34.30;30.90;;;;;;4975070;28;20027;-65
2023/09/30 11:51:29;;;;;;;;;;;34.20;31.70;;;;;;4975008;28;19991;-65
2023/09/30 11:53:55;;;;;;;;;;;34.30;32.60;;;;;;4975174;28;19987;-65
2023/09/30 11:56:29;;;;;;;;;;;34.40;33.90;;;;;;4975042;28;19991;-65
2023/09/30 11:58:55;;;;;;;;;;;34.50;31.80;;;;;;4957877;28;20010;-65
2023/09/30 12:01:21;;;;;;;;;;;34.60;33.20;;;;;;4974709;28;19983;-65
2023/09/30 12:03:47;;;;;;;;;;;34.80;30.90;;;;;;4974599;28;20082;-65
2023/09/30 12:06:13;;;;;;;;;;;34.80;31.80;;;;;;4974792;28;20048;-64
2023/09/30 12:08:39;;;;;;;;;;;34.90;30.60;;;;;;4974529;28;19987;-64
2023/09/30 12:11:05;;;;;;;;;;;35.20;32.30;;;;;;4960436;28;20476;-65
2023/09/30 12:13:31;;;;;;;;;;;35.10;32.80;;;;;;4981551;28;19983;-65
2023/09/30 12:15:57;;;;;;;;;;;35.30;35.50;;;;;;4981060;28;19983;-66
2023/09/30 12:18:24;;;;;;;;;;;35.40;28.70;;;;;;4981258;28;19989;-65
2023/09/30 12:20:51;;;;;;;;;;;35.50;28.90;;;;;;4963785;28;20094;-65
2023/09/30 12:23:17;;;;;;;;;;;35.40;27.90;;;;;;4963463;28;20066;-64
2023/09/30 12:25:43;;;;;;;;;;;35.20;28.10;;;;;;4981381;28;20093;-64
2023/09/30 12:28:09;;;;;;;;;;;35.20;28.60;;;;;;4981154;28;20421;-65
2023/09/30 12:30:34;;;;;;;;;;;35.30;29.90;;;;;;4981022;28;19987;-65
2023/09/30 12:33:00;;;;;;;;;;;35.30;31.20;;;;;;4980999;28;20417;-64
2023/09/30 12:35:26;;;;;;;;;;;35.20;29.10;;;;;;4981063;28;19987;-65
2023/09/30 12:37:52;;;;;;;;;;;35.00;28.90;;;;;;4980517;28;20357;-65
2023/09/30 12:40:18;;;;;;;;;;;34.70;29.60;;;;;;4980460;28;19983;-65
2023/09/30 12:42:44;;;;;;;;;;;34.20;28.80;;;;;;4963198;28;20077;-64
2023/09/30 12:45:10;;;;;;;;;;;33.70;29.50;;;;;;4980291;28;20003;-63
2023/09/30 12:47:36;;;;;;;;;;;33.00;30.10;;;;;;4961331;28;19998;-64
2023/09/30 12:50:01;;;;;;;;;;;32.70;31.80;;;;;;4978793;28;20006;-64
2023/09/30 12:52:27;;;;;;;;;;;32.40;30.70;;;;;;4978927;28;19983;-65
2023/09/30 12:54:53;;;;;;;;;;;32.20;31.30;;;;;;4978748;28;20461;-64
2023/09/30 12:57:19;;;;;;;;;;;32.00;32.10;;;;;;4979282;28;19991;-64
2023/09/30 12:59:49;;;;;;;;;;;31.90;32.80;;;;;;4979189;28;19999;-65
2023/09/30 13:02:15;;;;;;;;;;;32.30;32.50;;;;;;4980706;28;19984;-64
2023/09/30 13:04:43;;;;;;;;;;;32.60;33.80;;;;;;4980308;28;20118;-65
2023/09/30 13:07:10;;;;;;;;;;;33.00;31.60;;;;;;4980807;28;19990;-65
2023/09/30 13:09:36;;;;;;;;;;;33.30;31.40;;;;;;4980618;28;19992;-64
2023/09/30 13:12:02;;;;;;;;;;;33.60;31.50;;;;;;4980667;28;20397;-64
2023/09/30 13:14:28;;;;;;;;;;;33.60;30.00;;;;;;4980404;28;20476;-65
2023/09/30 13:16:53;;;;;;;;;;;33.90;30.80;;;;;;4980525;28;19987;-65
2023/09/30 13:19:21;;;;;;;;;;;33.90;30.20;;;;;;4980474;28;20010;-64
2023/09/30 13:21:47;;;;;;;;;;;34.00;30.80;;;;;;4979691;28;20030;-65
2023/09/30 13:24:13;;;;;;;;;;;34.10;33.00;;;;;;4976777;28;20011;-64
2023/09/30 13:26:39;;;;;;;;;;;34.20;29.60;;;;;;4960181;28;19991;-65
2023/09/30 13:29:05;;;;;;;;;;;34.40;31.60;;;;;;4977410;28;19987;-64
2023/09/30 13:31:31;;;;;;;;;;;34.40;29.10;;;;;;4977476;28;19983;-64
2023/09/30 13:33:56;;;;;;;;;;;34.30;29.60;;;;;;4977406;28;20456;-66
2023/09/30 13:36:22;;;;;;;;;;;34.50;29.10;;;;;;4959972;28;19995;-64
2023/09/30 13:38:49;;;;;;;;;;;34.60;29.10;;;;;;4977590;28;19984;-65
2023/09/30 13:41:15;;;;;;;;;;;34.60;29.50;;;;;;4977490;28;20526;-65
2023/09/30 13:43:41;;;;;;;;;;;34.60;29.30;;;;;;4977202;28;20077;-64
2023/09/30 13:46:07;;;;;;;;;;;34.60;28.60;;;;;;4977042;28;20030;-65
2023/09/30 13:48:33;;;;;;;;;;;34.50;28.40;;;;;;4976854;28;19983;-65
2023/09/30 13:51:05;;;;;;;;;;;34.60;29.10;;;;;;4977143;28;19990;-65
2023/09/30 13:53:31;;;;;;;;;;;34.60;28.40;;;;;;4977379;28;20077;-64
2023/09/30 13:55:56;;;;;;;;;;;34.40;27.90;;;;;;4976867;28;20058;-64
2023/09/30 13:58:22;;;;;;;;;;;34.50;28.30;;;;;;4976563;28;19999;-65
2023/09/30 14:00:52;;;;;;;;;;;34.50;28.50;;;;;;4958865;28;20419;-65
2023/09/30 14:03:18;;;;;;;;;;;34.60;27.60;;;;;;4959049;28;20023;-64
2023/09/30 14:05:45;;;;;;;;;;;34.70;28.20;;;;;;4976864;28;20011;-65
2023/09/30 14:08:11;;;;;;;;;;;34.70;27.50;;;;;;4977102;28;20472;-65
2023/09/30 14:10:36;;;;;;;;;;;34.70;28.30;;;;;;4976699;28;20022;-64
2023/09/30 14:13:03;;;;;;;;;;;34.70;28.30;;;;;;4976846;28;19983;-64